createdAt,value
2019-05-03T00:01:36.273Z,12.57
2019-05-03T00:04:05.733Z,10.13
2019-05-03T00:06:35.214Z,11.57
2019-05-03T00:09:06.745Z,11.13
2019-05-03T00:11:36.133Z,10.83
2019-05-03T00:14:05.551Z,10.47
2019-05-03T00:16:36.884Z,9.57
2019-05-03T00:19:06.227Z,9.50
2019-05-03T00:21:35.613Z,9.10
2019-05-03T00:24:05.010Z,9.30
2019-05-03T00:26:34.441Z,7.63
2019-05-03T00:29:03.774Z,7.20
2019-05-03T00:31:33.151Z,6.80
2019-05-03T00:34:06.750Z,5.87
2019-05-03T00:36:43.820Z,6.47
2019-05-03T00:39:34.856Z,6.40
2019-05-03T00:42:04.279Z,5.33
2019-05-03T00:44:33.620Z,6.30
2019-05-03T00:47:03.066Z,7.50
2019-05-03T00:49:32.408Z,8.57
2019-05-03T00:52:02.323Z,7.23
2019-05-03T00:54:32.373Z,8.20
2019-05-03T00:57:02.701Z,8.60
2019-05-03T00:59:32.663Z,8.77
2019-05-03T01:02:02.777Z,7.90
2019-05-03T01:04:32.622Z,7.43
2019-05-03T01:07:02.319Z,7.27
2019-05-03T01:09:32.031Z,7.30
2019-05-03T01:12:01.936Z,8.50
2019-05-03T01:14:32.054Z,7.80
2019-05-03T01:17:02.593Z,7.90
2019-05-03T01:19:32.837Z,9.23
2019-05-03T01:22:02.171Z,9.00
2019-05-03T01:24:32.285Z,9.63
2019-05-03T01:27:02.075Z,9.60
2019-05-03T01:29:32.297Z,9.17
2019-05-03T01:32:02.360Z,9.13
2019-05-03T01:34:32.571Z,9.27
2019-05-03T01:37:02.735Z,8.53
2019-05-03T01:39:32.188Z,9.60
2019-05-03T01:42:02.690Z,10.03
2019-05-03T01:44:32.709Z,9.07
2019-05-03T01:47:04.700Z,9.77
2019-05-03T01:49:47.598Z,9.67
2019-05-03T01:52:22.401Z,9.80
2019-05-03T01:54:52.223Z,9.83
2019-05-03T01:57:22.101Z,9.60
2019-05-03T01:59:52.050Z,10.37
2019-05-03T02:02:39.387Z,8.70
2019-05-03T02:05:32.036Z,8.87
2019-05-03T02:08:02.135Z,9.70
2019-05-03T02:10:32.278Z,9.37
2019-05-03T02:13:01.798Z,11.07
2019-05-03T02:18:07.085Z,10.17
2019-05-03T02:20:36.535Z,10.90
2019-05-03T02:23:05.994Z,10.20
2019-05-03T02:25:35.633Z,12.30
2019-05-03T02:28:05.042Z,10.30
2019-05-03T02:30:34.500Z,11.17
2019-05-03T02:33:04.380Z,11.00
2019-05-03T02:35:33.964Z,10.80
2019-05-03T02:38:03.800Z,10.43
2019-05-03T02:40:34.015Z,10.03
2019-05-03T02:43:10.361Z,11.70
2019-05-03T02:45:56.687Z,11.10
2019-05-03T02:48:36.221Z,12.47
2019-05-03T02:51:06.602Z,11.43
2019-05-03T02:53:36.021Z,11.37
2019-05-03T02:56:15.234Z,12.10
2019-05-03T02:58:36.774Z,11.03
2019-05-03T03:01:06.768Z,12.47
2019-05-03T03:03:36.623Z,11.70
2019-05-03T03:06:07.011Z,12.00
2019-05-03T03:08:37.245Z,12.00
2019-05-03T03:11:07.652Z,11.83
2019-05-03T03:13:38.331Z,12.40
2019-05-03T03:16:08.680Z,11.60
2019-05-03T03:18:38.563Z,11.20
2019-05-03T03:21:15.677Z,9.93
2019-05-03T03:24:01.437Z,9.70
2019-05-03T03:26:39.262Z,9.50
2019-05-03T03:29:05.736Z,8.53
2019-05-03T03:32:18.116Z,8.87
2019-05-03T03:35:01.757Z,8.40
2019-05-03T03:37:26.651Z,8.70
2019-05-03T03:39:56.295Z,8.87
2019-05-03T03:42:26.008Z,8.57
2019-05-03T03:44:56.281Z,8.67
2019-05-03T03:47:27.384Z,9.00
2019-05-03T03:49:57.261Z,7.70
2019-05-03T03:52:26.898Z,9.40
2019-05-03T03:54:56.458Z,8.33
2019-05-03T03:57:25.995Z,7.40
2019-05-03T03:59:56.249Z,8.47
2019-05-03T04:02:26.637Z,8.00
2019-05-03T04:04:56.379Z,7.03
2019-05-03T04:07:26.350Z,7.50
2019-05-03T04:09:56.446Z,8.07
2019-05-03T04:12:26.903Z,7.37
2019-05-03T04:15:05.505Z,7.03
2019-05-03T04:17:59.353Z,6.80
2019-05-03T04:20:32.752Z,6.43
2019-05-03T04:23:02.149Z,6.73
2019-05-03T04:25:31.538Z,6.17
2019-05-03T04:28:00.942Z,6.53
2019-05-03T04:30:30.612Z,6.90
2019-05-03T04:33:00.141Z,6.63
2019-05-03T04:35:29.706Z,6.57
2019-05-03T04:37:59.564Z,6.30
2019-05-03T04:40:29.324Z,6.23
2019-05-03T04:42:58.792Z,6.20
2019-05-03T04:45:28.417Z,7.00
2019-05-03T04:47:58.092Z,7.77
2019-05-03T04:50:27.759Z,7.13
2019-05-03T04:52:57.415Z,8.50
2019-05-03T04:55:27.073Z,8.33
2019-05-03T04:57:56.679Z,8.63
2019-05-03T05:00:26.181Z,8.47
2019-05-03T05:02:55.701Z,9.70
2019-05-03T05:05:26.209Z,9.53
2019-05-03T05:07:56.151Z,8.17
2019-05-03T05:10:26.239Z,8.73
2019-05-03T05:12:55.825Z,9.53
2019-05-03T05:15:26.503Z,8.77
2019-05-03T05:18:07.759Z,8.20
2019-05-03T05:20:55.999Z,8.17
2019-05-03T05:23:25.462Z,7.93
2019-05-03T05:26:08.016Z,8.50
2019-05-03T05:28:51.547Z,8.37
2019-05-03T05:31:20.904Z,8.80
2019-05-03T05:33:50.309Z,9.40
2019-05-03T05:36:19.670Z,9.13
2019-05-03T05:38:49.071Z,9.60
2019-05-03T05:41:18.450Z,9.57
2019-05-03T05:43:47.856Z,9.17
2019-05-03T05:46:18.298Z,9.77
2019-05-03T05:48:49.830Z,8.67
2019-05-03T05:51:19.217Z,10.40
2019-05-03T05:53:48.628Z,9.60
2019-05-03T05:56:40.127Z,9.73
2019-05-03T05:59:31.766Z,10.43
2019-05-03T06:02:05.296Z,10.83
2019-05-03T06:04:34.957Z,10.30
2019-05-03T06:07:22.306Z,11.90
2019-05-03T06:10:14.752Z,10.73
2019-05-03T06:12:57.796Z,11.40
2019-05-03T06:15:45.784Z,10.70
2019-05-03T06:18:19.688Z,10.77
2019-05-03T06:20:55.981Z,10.93
2019-05-03T06:23:39.089Z,9.47
2019-05-03T06:26:27.349Z,10.10
2019-05-03T06:28:57.370Z,9.50
2019-05-03T06:31:36.472Z,10.30
2019-05-03T06:34:06.015Z,8.87
2019-05-03T06:36:35.660Z,9.40
2019-05-03T06:39:08.308Z,8.47
2019-05-03T06:41:37.502Z,9.47
2019-05-03T06:44:06.902Z,8.37
2019-05-03T06:46:46.663Z,9.07
2019-05-03T06:49:16.066Z,8.73
2019-05-03T06:51:49.677Z,7.67
2019-05-03T06:54:20.770Z,8.23
2019-05-03T06:56:47.892Z,7.53
2019-05-03T06:59:25.967Z,6.70
2019-05-03T07:02:14.863Z,6.10
2019-05-03T07:04:46.755Z,6.30
2019-05-03T07:07:35.454Z,6.60
2019-05-03T07:10:10.551Z,6.77
2019-05-03T07:12:57.441Z,6.40
2019-05-03T07:15:27.031Z,6.43
2019-05-03T07:17:56.846Z,6.00
2019-05-03T07:20:26.276Z,5.97
2019-05-03T07:22:56.042Z,4.80
2019-05-03T07:25:26.350Z,5.50
2019-05-03T07:27:55.876Z,4.33
2019-05-03T07:30:25.379Z,4.50
2019-05-03T07:33:00.380Z,4.73
2019-05-03T07:35:29.741Z,4.50
2019-05-03T07:37:59.110Z,4.97
2019-05-03T07:40:28.516Z,4.60
2019-05-03T07:42:57.947Z,4.33
2019-05-03T07:45:27.342Z,4.17
2019-05-03T07:47:56.709Z,3.60
2019-05-03T07:50:26.164Z,3.50
2019-05-03T07:52:55.926Z,3.87
2019-05-03T07:55:45.692Z,3.50
2019-05-03T07:58:18.422Z,3.73
2019-05-03T08:01:02.582Z,3.70
2019-05-03T08:03:20.505Z,3.87
2019-05-03T08:05:50.514Z,3.47
2019-05-03T08:08:19.919Z,2.90
2019-05-03T08:10:49.389Z,4.43
2019-05-03T08:13:18.920Z,3.37
2019-05-03T08:15:48.296Z,2.80
2019-05-03T08:18:17.986Z,3.40
2019-05-03T08:20:47.337Z,2.87
2019-05-03T08:23:26.834Z,2.97
2019-05-03T08:25:50.769Z,3.67
2019-05-03T08:28:19.028Z,2.90
2019-05-03T08:31:04.788Z,4.00
2019-05-03T08:33:58.402Z,3.07
2019-05-03T08:36:28.038Z,3.30
2019-05-03T08:38:58.298Z,3.70
2019-05-03T08:41:29.847Z,3.03
2019-05-03T08:43:59.213Z,3.47
2019-05-03T08:46:28.631Z,3.47
2019-05-03T08:48:58.029Z,2.90
2019-05-03T08:51:27.418Z,3.10
2019-05-03T08:53:56.771Z,3.03
2019-05-03T08:56:26.190Z,3.10
2019-05-03T08:58:56.937Z,2.93
2019-05-03T09:01:26.279Z,3.23
2019-05-03T09:03:56.084Z,3.27
2019-05-03T09:06:26.092Z,3.20
2019-05-03T09:08:57.217Z,2.40
2019-05-03T09:11:33.603Z,2.60
2019-05-03T09:14:00.465Z,2.60
2019-05-03T09:16:29.824Z,2.20
2019-05-03T09:18:59.288Z,2.03
2019-05-03T09:21:28.690Z,2.70
2019-05-03T09:23:58.091Z,2.20
2019-05-03T09:26:29.546Z,2.90
2019-05-03T09:28:58.582Z,2.40
2019-05-03T09:31:27.939Z,2.30
2019-05-03T09:33:57.461Z,2.17
2019-05-03T09:36:26.821Z,2.40
2019-05-03T09:38:56.225Z,2.63
2019-05-03T09:41:25.859Z,1.90
2019-05-03T09:43:55.679Z,2.60
2019-05-03T09:46:26.531Z,2.40
2019-05-03T09:49:03.570Z,2.20
2019-05-03T09:51:27.310Z,2.40
2019-05-03T09:54:02.184Z,2.30
2019-05-03T09:56:55.846Z,2.20
2019-05-03T09:59:20.256Z,2.40
2019-05-03T10:01:49.724Z,2.07
2019-05-03T10:04:19.276Z,2.60
2019-05-03T10:06:48.615Z,1.80
2019-05-03T10:09:18.130Z,1.87
2019-05-03T10:11:47.571Z,2.23
2019-05-03T10:14:16.997Z,2.33
2019-05-03T10:16:57.298Z,2.60
2019-05-03T10:19:36.999Z,2.10
2019-05-03T10:21:57.900Z,2.27
2019-05-03T10:24:27.386Z,2.47
2019-05-03T10:26:56.983Z,2.50
2019-05-03T10:29:26.483Z,2.67
2019-05-03T10:32:02.835Z,2.63
2019-05-03T10:34:32.247Z,2.37
2019-05-03T10:37:01.631Z,2.40
2019-05-03T10:39:31.128Z,2.60
2019-05-03T10:42:00.529Z,2.63
2019-05-03T10:44:29.975Z,2.60
2019-05-03T10:46:59.426Z,2.23
2019-05-03T10:49:28.879Z,2.60
2019-05-03T10:52:02.337Z,2.60
2019-05-03T10:54:31.730Z,2.60
2019-05-03T10:57:15.928Z,2.60
2019-05-03T10:59:45.484Z,2.57
2019-05-03T11:02:38.964Z,2.10
2019-05-03T11:05:08.698Z,2.75
2019-05-03T11:07:38.433Z,2.63
2019-05-03T11:10:09.069Z,2.20
2019-05-03T11:12:38.555Z,2.43
2019-05-03T11:15:08.654Z,2.57
2019-05-03T11:17:38.049Z,2.60
2019-05-03T11:20:08.119Z,2.33
2019-05-03T11:22:37.495Z,2.47
2019-05-03T11:25:07.033Z,2.37
2019-05-03T11:27:45.296Z,2.13
2019-05-03T11:30:15.811Z,2.97
2019-05-03T11:32:55.612Z,2.30
2019-05-03T11:35:44.751Z,2.00
2019-05-03T11:38:35.002Z,2.10
2019-05-03T11:41:04.943Z,2.50
2019-05-03T11:43:35.743Z,2.83
2019-05-03T11:46:05.197Z,2.47
2019-05-03T11:48:34.999Z,2.23
2019-05-03T11:51:04.521Z,2.60
2019-05-03T11:53:35.600Z,2.67
2019-05-03T11:56:05.609Z,2.50
2019-05-03T11:58:34.997Z,2.30
2019-05-03T12:01:18.861Z,2.80
2019-05-03T12:03:45.328Z,2.50
2019-05-03T12:06:15.726Z,3.03
2019-05-03T12:08:45.292Z,2.87
2019-05-03T12:11:15.262Z,3.40
2019-05-03T12:13:45.645Z,3.30
2019-05-03T12:16:22.187Z,2.93
2019-05-03T12:18:53.313Z,3.43
2019-05-03T12:21:19.270Z,3.17
2019-05-03T12:23:49.397Z,3.80
2019-05-03T12:26:19.970Z,2.77
2019-05-03T12:28:49.882Z,2.73
2019-05-03T12:31:33.358Z,2.83
2019-05-03T12:33:50.397Z,2.87
2019-05-03T12:36:19.986Z,3.37
2019-05-03T12:38:49.623Z,2.47
2019-05-03T12:41:19.170Z,2.70
2019-05-03T12:43:48.634Z,2.80
2019-05-03T12:46:18.376Z,2.60
2019-05-03T12:48:47.730Z,2.70
2019-05-03T12:51:17.186Z,2.73
2019-05-03T12:53:46.581Z,2.43
2019-05-03T12:56:22.722Z,2.30
2019-05-03T12:59:12.298Z,2.50
2019-05-03T13:02:09.539Z,2.63
2019-05-03T13:04:40.065Z,2.90
2019-05-03T13:07:28.338Z,2.90
2019-05-03T13:09:57.710Z,2.90
2019-05-03T13:12:28.587Z,3.40
2019-05-03T13:14:57.931Z,2.80
2019-05-03T13:17:39.504Z,2.90
2019-05-03T13:20:11.427Z,3.17
2019-05-03T13:22:40.842Z,2.70
2019-05-03T13:25:10.319Z,2.70
2019-05-03T13:27:39.728Z,2.60
2019-05-03T13:30:09.142Z,2.60
2019-05-03T13:32:38.564Z,2.93
2019-05-03T13:35:07.927Z,3.27
2019-05-03T13:37:37.483Z,2.33
2019-05-03T13:40:07.127Z,2.50
2019-05-03T13:42:36.506Z,3.50
2019-05-03T13:45:06.209Z,3.17
2019-05-03T13:47:35.812Z,2.80
2019-05-03T13:50:06.248Z,2.50
2019-05-03T13:52:35.734Z,3.37
2019-05-03T13:55:05.569Z,2.40
2019-05-03T13:57:35.470Z,2.90
2019-05-03T14:00:05.913Z,3.27
2019-05-03T14:02:35.882Z,3.10
2019-05-03T14:05:05.953Z,2.67
2019-05-03T14:07:35.546Z,2.37
2019-05-03T14:10:05.337Z,2.60
2019-05-03T14:12:35.130Z,2.87
2019-05-03T14:15:05.673Z,3.33
2019-05-03T14:17:35.538Z,3.20
2019-05-03T14:20:14.775Z,2.80
2019-05-03T14:22:45.708Z,2.80
2019-05-03T14:25:15.283Z,3.10
2019-05-03T14:27:45.551Z,2.40
2019-05-03T14:30:16.761Z,2.47
2019-05-03T14:32:46.176Z,2.43
2019-05-03T14:35:16.334Z,2.80
2019-05-03T14:37:46.081Z,2.40
2019-05-03T14:40:15.714Z,2.70
2019-05-03T14:42:45.103Z,2.80
2019-05-03T14:45:15.036Z,2.40
2019-05-03T14:47:44.648Z,2.50
2019-05-03T14:50:15.008Z,2.50
2019-05-03T14:52:45.531Z,2.70
2019-05-03T14:55:25.210Z,2.90
2019-05-03T14:58:06.544Z,2.83
2019-05-03T15:00:45.135Z,2.30
2019-05-03T15:03:17.978Z,3.00
2019-05-03T15:05:47.382Z,2.63
2019-05-03T15:08:16.738Z,3.20
2019-05-03T15:10:46.147Z,2.57
2019-05-03T15:13:15.962Z,3.07
2019-05-03T15:15:46.093Z,3.37
2019-05-03T15:18:16.146Z,3.00
2019-05-03T15:20:45.806Z,3.50
2019-05-03T15:23:15.170Z,2.93
2019-05-03T15:25:45.213Z,3.23
2019-05-03T15:30:44.522Z,3.20
2019-05-03T15:33:15.120Z,3.07
2019-05-03T15:35:46.650Z,2.83
2019-05-03T15:38:16.143Z,2.80
2019-05-03T15:40:46.420Z,2.80
2019-05-03T15:43:34.858Z,3.03
2019-05-03T15:46:17.439Z,2.87
2019-05-03T15:48:49.892Z,2.97
2019-05-03T15:51:19.297Z,2.83
2019-05-03T15:53:48.654Z,2.90
2019-05-03T15:56:18.056Z,2.97
2019-05-03T15:58:47.429Z,2.37
2019-05-03T16:01:16.843Z,2.87
2019-05-03T16:03:46.194Z,2.50
2019-05-03T16:06:15.774Z,2.77
2019-05-03T16:08:45.123Z,2.53
2019-05-03T16:11:14.934Z,2.60
2019-05-03T16:13:44.810Z,2.87
2019-05-03T16:16:15.182Z,2.30
2019-05-03T16:18:44.980Z,3.50
2019-05-03T16:21:14.771Z,3.07
2019-05-03T16:23:46.279Z,3.07
2019-05-03T16:26:15.325Z,3.23
2019-05-03T16:28:49.455Z,2.70
2019-05-03T16:31:21.362Z,3.20
2019-05-03T16:33:50.717Z,3.20
2019-05-03T16:36:20.071Z,2.97
2019-05-03T16:38:49.515Z,3.10
2019-05-03T16:41:18.982Z,3.30
2019-05-03T16:43:48.394Z,2.80
2019-05-03T16:46:17.786Z,2.80
2019-05-03T16:48:47.190Z,3.10
2019-05-03T16:51:17.280Z,3.70
2019-05-03T16:53:46.931Z,2.80
2019-05-03T16:56:17.125Z,3.23
2019-05-03T16:58:46.760Z,3.63
2019-05-03T17:01:18.174Z,2.50
2019-05-03T17:03:52.171Z,2.93
2019-05-03T17:06:39.375Z,3.00
2019-05-03T17:09:26.712Z,3.20
2019-05-03T17:12:15.241Z,2.70
2019-05-03T17:14:44.726Z,3.10
2019-05-03T17:17:14.850Z,2.90
2019-05-03T17:19:44.831Z,3.50
2019-05-03T17:22:17.099Z,3.37
2019-05-03T17:24:45.525Z,4.30
2019-05-03T17:27:14.940Z,3.23
2019-05-03T17:29:44.589Z,3.03
2019-05-03T17:32:15.320Z,2.97
2019-05-03T17:34:45.494Z,2.97
2019-05-03T17:37:14.839Z,3.40
2019-05-03T17:40:08.964Z,3.13
2019-05-03T17:42:56.348Z,3.57
2019-05-03T17:45:31.351Z,4.10
2019-05-03T17:48:00.746Z,3.77
2019-05-03T17:50:30.158Z,3.87
2019-05-03T17:53:10.428Z,3.40
2019-05-03T17:56:16.848Z,3.63
2019-05-03T17:58:52.439Z,3.00
2019-05-03T18:01:40.668Z,3.77
2019-05-03T18:04:20.590Z,3.70
2019-05-03T18:07:04.579Z,3.10
2019-05-03T18:09:35.694Z,3.63
2019-05-03T18:12:05.564Z,2.70
2019-05-03T18:14:34.963Z,3.30
2019-05-03T18:17:05.714Z,2.77
2019-05-03T18:19:35.437Z,3.20
2019-05-03T18:22:05.328Z,2.67
2019-05-03T18:24:35.951Z,3.80
2019-05-03T18:27:05.487Z,3.23
2019-05-03T18:29:34.993Z,3.50
2019-05-03T18:32:05.496Z,2.57
2019-05-03T18:34:35.275Z,3.70
2019-05-03T18:37:04.945Z,3.60
2019-05-03T18:39:34.804Z,3.50
2019-05-03T18:42:06.421Z,3.67
2019-05-03T18:44:57.076Z,3.60
2019-05-03T18:47:27.407Z,3.30
2019-05-03T18:49:56.960Z,3.67
2019-05-03T18:52:26.538Z,3.93
2019-05-03T18:54:57.112Z,3.33
2019-05-03T18:57:26.759Z,3.23
2019-05-03T18:59:56.431Z,3.47
2019-05-03T19:02:26.071Z,3.83
2019-05-03T19:04:56.383Z,4.40
2019-05-03T19:07:45.286Z,3.33
2019-05-03T19:10:35.685Z,3.80
2019-05-03T19:13:27.067Z,3.87
2019-05-03T19:15:56.805Z,4.00
2019-05-03T19:18:28.579Z,3.80
2019-05-03T19:20:58.217Z,3.50
2019-05-03T19:23:27.857Z,4.10
2019-05-03T19:25:57.407Z,3.60
2019-05-03T19:28:26.995Z,3.67
2019-05-03T19:30:56.646Z,3.53
2019-05-03T19:33:27.729Z,3.30
2019-05-03T19:36:00.188Z,3.63
2019-05-03T19:38:28.686Z,4.40
2019-05-03T19:40:58.334Z,4.77
2019-05-03T19:43:27.927Z,4.60
2019-05-03T19:45:57.799Z,4.30
2019-05-03T19:48:27.441Z,4.40
2019-05-03T19:50:57.305Z,5.00
2019-05-03T19:53:48.955Z,4.40
2019-05-03T19:56:19.892Z,3.90
2019-05-03T19:58:50.022Z,3.60
2019-05-03T20:01:41.737Z,3.97
2019-05-03T20:04:42.885Z,4.90
2019-05-03T20:07:34.755Z,4.13
2019-05-03T20:10:05.254Z,4.53
2019-05-03T20:12:35.614Z,4.17
2019-05-03T20:15:05.532Z,4.20
2019-05-03T20:17:35.150Z,4.23
2019-05-03T20:20:05.225Z,4.00
2019-05-03T20:22:35.185Z,3.90
2019-05-03T20:25:04.963Z,4.57
2019-05-03T20:27:35.262Z,4.43
2019-05-03T20:30:05.849Z,4.80
2019-05-03T20:32:35.586Z,4.70
2019-05-03T20:35:16.649Z,4.70
2019-05-03T20:37:37.042Z,4.70
2019-05-03T20:40:06.602Z,4.83
2019-05-03T20:42:55.642Z,4.40
2019-05-03T20:45:30.739Z,4.53
2019-05-03T20:48:00.362Z,4.90
2019-05-03T20:50:30.023Z,4.83
2019-05-03T20:52:59.679Z,5.40
2019-05-03T20:55:29.443Z,5.80
2019-05-03T20:57:58.927Z,5.17
2019-05-03T21:00:28.549Z,5.60
2019-05-03T21:02:58.182Z,5.60
2019-05-03T21:05:31.807Z,5.47
2019-05-03T21:07:59.194Z,5.53
2019-05-03T21:10:28.834Z,5.87
2019-05-03T21:12:58.486Z,5.77
2019-05-03T21:15:37.409Z,7.00
2019-05-03T21:18:17.692Z,6.30
2019-05-03T21:20:55.456Z,7.30
2019-05-03T21:23:25.976Z,5.80
2019-05-03T21:26:13.026Z,5.07
2019-05-03T21:28:58.769Z,4.97
2019-05-03T21:31:28.149Z,6.77
2019-05-03T21:33:57.782Z,6.27
2019-05-03T21:36:27.370Z,5.37
2019-05-03T21:38:56.774Z,5.40
2019-05-03T21:41:26.260Z,5.40
2019-05-03T21:43:55.937Z,5.73
2019-05-03T21:46:34.861Z,5.70
2019-05-03T21:49:18.415Z,5.07
2019-05-03T21:51:47.826Z,5.13
2019-05-03T21:54:17.229Z,6.20
2019-05-03T21:56:46.596Z,5.10
2019-05-03T21:59:15.993Z,5.70
2019-05-03T22:01:47.890Z,5.50
2019-05-03T22:04:17.597Z,5.53
2019-05-03T22:06:46.939Z,5.90
2019-05-03T22:09:16.348Z,5.27
2019-05-03T22:11:45.700Z,6.70
2019-05-03T22:14:24.559Z,6.20
2019-05-03T22:17:14.902Z,7.00
2019-05-03T22:19:46.171Z,7.03
2019-05-03T22:22:34.175Z,6.73
2019-05-03T22:25:04.827Z,6.90
2019-05-03T22:27:40.026Z,5.87
2019-05-03T22:30:09.452Z,7.10
2019-05-03T22:32:39.029Z,6.87
2019-05-03T22:35:08.978Z,6.73
2019-05-03T22:37:38.727Z,6.77
2019-05-03T22:40:08.131Z,7.33
2019-05-03T22:42:37.514Z,8.30
2019-05-03T22:45:07.049Z,8.17
2019-05-03T22:47:36.727Z,7.13
2019-05-03T22:50:06.290Z,7.80
2019-05-03T22:52:35.708Z,7.50
2019-05-03T22:55:05.736Z,9.53
2019-05-03T22:57:35.303Z,8.13
2019-05-03T23:00:06.259Z,8.43
2019-05-03T23:02:35.815Z,8.03
2019-05-03T23:05:05.262Z,8.80
2019-05-03T23:07:37.289Z,8.37
2019-05-03T23:10:06.587Z,8.30
2019-05-03T23:12:35.940Z,8.50
2019-05-03T23:15:06.800Z,10.87
2019-05-03T23:17:36.225Z,8.77
2019-05-03T23:20:11.364Z,9.73
2019-05-03T23:22:40.733Z,10.80
2019-05-03T23:25:10.143Z,10.47
2019-05-03T23:27:39.548Z,9.37
2019-05-03T23:30:08.963Z,9.40
2019-05-03T23:32:38.390Z,10.30
2019-05-03T23:35:07.835Z,9.90
2019-05-03T23:37:37.401Z,10.50
2019-05-03T23:40:07.444Z,10.67
2019-05-03T23:42:37.071Z,9.37
2019-05-03T23:45:06.550Z,9.90
2019-05-03T23:47:45.261Z,9.17
2019-05-03T23:50:19.777Z,8.80
2019-05-03T23:52:49.177Z,9.33
2019-05-03T23:55:34.663Z,9.27
2019-05-03T23:58:04.837Z,9.50
